createdAt,value
2018-12-19T00:00:08.835Z,3.20
2018-12-19T00:02:36.340Z,3.15
2018-12-19T00:05:04.171Z,3.25
2018-12-19T00:07:31.692Z,3.38
2018-12-19T00:09:59.235Z,3.23
2018-12-19T00:12:26.747Z,3.35
2018-12-19T00:14:54.251Z,3.28
2018-12-19T00:17:21.783Z,3.22
2018-12-19T00:19:49.280Z,3.17
2018-12-19T00:22:16.820Z,3.14
2018-12-19T00:24:44.540Z,3.18
2018-12-19T00:27:12.054Z,3.37
2018-12-19T00:29:39.599Z,3.32
2018-12-19T00:32:07.103Z,3.45
2018-12-19T00:34:34.759Z,3.37
2018-12-19T00:37:02.271Z,3.40
2018-12-19T00:39:29.779Z,3.26
2018-12-19T00:41:57.319Z,3.18
2018-12-19T00:44:24.829Z,3.07
2018-12-19T00:46:52.601Z,3.02
2018-12-19T00:49:20.115Z,2.97
2018-12-19T00:51:47.622Z,3.03
2018-12-19T00:54:15.183Z,3.21
2018-12-19T00:56:42.704Z,3.16
2018-12-19T00:59:10.427Z,3.13
2018-12-19T01:01:37.931Z,3.24
2018-12-19T01:04:05.435Z,3.12
2018-12-19T01:06:33.683Z,3.20
2018-12-19T01:09:01.323Z,2.98
2018-12-19T01:11:28.860Z,2.95
2018-12-19T01:13:56.370Z,3.04
2018-12-19T01:16:23.882Z,2.91
2018-12-19T01:18:51.423Z,2.88
2018-12-19T01:21:18.935Z,2.87
2018-12-19T01:23:46.495Z,2.93
2018-12-19T01:26:14.008Z,2.96
2018-12-19T01:28:41.515Z,2.96
2018-12-19T01:31:09.052Z,2.96
2018-12-19T01:33:36.587Z,3.01
2018-12-19T01:36:04.235Z,2.90
2018-12-19T01:38:31.880Z,2.93
2018-12-19T01:40:59.388Z,2.84
2018-12-19T01:43:26.919Z,2.90
2018-12-19T01:45:54.427Z,2.92
2018-12-19T01:48:22.131Z,2.84
2018-12-19T01:50:49.635Z,2.80
2018-12-19T01:53:17.155Z,2.77
2018-12-19T01:55:44.887Z,2.72
2018-12-19T01:58:12.400Z,2.75
2018-12-19T02:00:40.147Z,2.78
2018-12-19T02:03:07.651Z,2.73
2018-12-19T02:05:35.159Z,2.74
2018-12-19T02:08:02.691Z,2.74
2018-12-19T02:10:30.195Z,2.74
2018-12-19T02:12:57.855Z,2.71
2018-12-19T02:15:25.359Z,2.76
2018-12-19T02:17:52.872Z,2.76
2018-12-19T02:20:20.412Z,2.68
2018-12-19T02:22:47.939Z,2.66
2018-12-19T02:25:15.730Z,2.67
2018-12-19T02:27:43.235Z,2.74
2018-12-19T02:30:10.865Z,2.75
2018-12-19T02:32:38.407Z,2.74
2018-12-19T02:35:06.015Z,2.77
2018-12-19T02:37:33.565Z,2.75
2018-12-19T02:40:01.093Z,2.78
2018-12-19T02:42:28.620Z,2.77
2018-12-19T02:44:56.160Z,2.82
2018-12-19T02:47:23.670Z,2.80
2018-12-19T02:49:51.228Z,2.83
2018-12-19T02:52:18.739Z,2.73
2018-12-19T02:54:46.250Z,2.87
2018-12-19T02:57:13.799Z,2.82
2018-12-19T02:59:41.308Z,2.76
2018-12-19T03:02:08.895Z,2.65
2018-12-19T03:04:36.411Z,2.63
2018-12-19T03:07:03.916Z,2.66
2018-12-19T03:09:31.453Z,2.63
2018-12-19T03:11:58.960Z,2.68
2018-12-19T03:14:26.611Z,2.72
2018-12-19T03:16:54.144Z,2.67
2018-12-19T03:19:21.659Z,2.68
2018-12-19T03:21:49.292Z,2.66
2018-12-19T03:24:16.799Z,2.66
2018-12-19T03:26:44.353Z,2.62
2018-12-19T03:29:12.368Z,2.63
2018-12-19T03:31:39.885Z,2.63
2018-12-19T03:34:07.440Z,2.66
2018-12-19T03:36:34.952Z,2.63
2018-12-19T03:39:02.688Z,2.68
2018-12-19T03:41:30.205Z,2.74
2018-12-19T03:43:57.760Z,2.71
2018-12-19T03:46:25.299Z,2.82
2018-12-19T03:48:57.481Z,2.80
2018-12-19T03:51:25.019Z,2.86
2018-12-19T03:53:52.523Z,2.77
2018-12-19T03:56:20.129Z,2.83
2018-12-19T03:58:47.643Z,2.76
2018-12-19T04:01:15.188Z,2.75
2018-12-19T04:03:42.701Z,2.73
2018-12-19T04:06:10.235Z,2.75
2018-12-19T04:08:37.744Z,2.84
2018-12-19T04:11:05.243Z,2.77
2018-12-19T04:13:32.807Z,2.81
2018-12-19T04:16:00.319Z,2.81
2018-12-19T04:18:27.891Z,2.75
2018-12-19T04:20:55.428Z,2.72
2018-12-19T04:23:22.936Z,2.77
2018-12-19T04:25:50.475Z,2.76
2018-12-19T04:28:18.017Z,2.80
2018-12-19T04:30:45.560Z,2.75
2018-12-19T04:33:13.086Z,2.74
2018-12-19T04:35:40.623Z,2.79
2018-12-19T04:38:08.167Z,2.93
2018-12-19T04:40:35.691Z,2.99
2018-12-19T04:43:03.568Z,2.90
2018-12-19T04:45:31.082Z,2.80
2018-12-19T04:47:58.591Z,2.79
2018-12-19T04:50:26.159Z,2.83
2018-12-19T04:52:53.668Z,2.87
2018-12-19T04:55:21.261Z,2.90
2018-12-19T04:57:49.403Z,2.93
2018-12-19T05:00:16.909Z,2.95
2018-12-19T05:02:44.554Z,3.03
2018-12-19T05:05:12.130Z,2.88
2018-12-19T05:07:39.881Z,2.97
2018-12-19T05:10:12.342Z,3.10
2018-12-19T05:12:37.140Z,2.95
2018-12-19T05:15:05.979Z,3.07
2018-12-19T05:17:33.488Z,2.89
2018-12-19T05:20:01.231Z,2.89
2018-12-19T05:22:28.743Z,2.87
2018-12-19T05:24:56.764Z,2.78
2018-12-19T05:27:24.324Z,2.77
2018-12-19T05:29:53.216Z,2.80
2018-12-19T05:32:20.946Z,2.93
2018-12-19T05:34:48.495Z,3.12
2018-12-19T05:37:16.208Z,3.18
2018-12-19T05:39:43.720Z,3.02
2018-12-19T05:42:11.273Z,3.03
2018-12-19T05:44:38.865Z,3.06
2018-12-19T05:47:06.391Z,3.14
2018-12-19T05:49:34.565Z,3.01
2018-12-19T05:52:02.089Z,2.92
2018-12-19T05:54:29.737Z,3.00
2018-12-19T05:56:57.315Z,3.10
2018-12-19T05:59:24.837Z,3.13
2018-12-19T06:01:52.390Z,3.15
2018-12-19T06:04:19.899Z,3.17
2018-12-19T06:06:47.439Z,3.19
2018-12-19T06:09:14.959Z,3.27
2018-12-19T06:11:42.491Z,3.31
2018-12-19T06:14:10.016Z,3.59
2018-12-19T06:16:37.567Z,3.45
2018-12-19T06:19:05.091Z,3.41
2018-12-19T06:21:32.607Z,3.36
2018-12-19T06:24:00.156Z,3.32
2018-12-19T06:26:27.704Z,3.33
2018-12-19T06:28:55.391Z,3.29
2018-12-19T06:31:22.911Z,3.29
2018-12-19T06:33:50.736Z,3.31
2018-12-19T06:36:18.647Z,3.31
2018-12-19T06:38:46.197Z,3.27
2018-12-19T06:41:13.764Z,3.30
2018-12-19T06:43:41.995Z,3.53
2018-12-19T06:46:09.513Z,3.67
2018-12-19T06:48:37.126Z,3.56
2018-12-19T06:51:04.663Z,3.76
2018-12-19T06:53:32.303Z,3.60
2018-12-19T06:55:59.811Z,3.65
2018-12-19T06:58:27.326Z,3.36
2018-12-19T07:00:54.871Z,3.49
2018-12-19T07:03:22.418Z,3.52
2018-12-19T07:05:49.967Z,3.56
2018-12-19T07:08:17.512Z,3.46
2018-12-19T07:10:45.528Z,3.72
2018-12-19T07:13:13.088Z,3.53
2018-12-19T07:15:40.641Z,3.53
2018-12-19T07:18:08.508Z,3.62
2018-12-19T07:20:36.491Z,3.59
2018-12-19T07:23:04.041Z,3.48
2018-12-19T07:25:31.724Z,3.43
2018-12-19T07:27:59.244Z,3.53
2018-12-19T07:30:26.796Z,3.52
2018-12-19T07:32:54.316Z,3.43
2018-12-19T07:35:21.858Z,3.40
2018-12-19T07:37:50.032Z,3.48
2018-12-19T07:40:17.542Z,3.48
2018-12-19T07:42:45.128Z,3.51
2018-12-19T07:45:12.639Z,3.59
2018-12-19T07:47:40.147Z,3.63
2018-12-19T07:50:07.711Z,3.58
2018-12-19T07:52:35.231Z,3.52
2018-12-19T07:55:02.867Z,3.41
2018-12-19T07:57:30.387Z,3.64
2018-12-19T07:59:57.907Z,3.62
2018-12-19T08:02:25.485Z,3.67
2018-12-19T08:04:53.995Z,3.55
2018-12-19T08:07:21.852Z,3.38
2018-12-19T08:09:49.393Z,3.48
2018-12-19T08:12:16.919Z,3.64
2018-12-19T08:14:44.467Z,3.58
2018-12-19T08:17:11.980Z,3.38
2018-12-19T08:19:39.539Z,3.39
2018-12-19T08:22:07.086Z,3.37
2018-12-19T08:24:34.628Z,3.44
2018-12-19T08:27:02.192Z,3.43
2018-12-19T08:29:29.716Z,3.47
2018-12-19T08:31:57.477Z,3.58
2018-12-19T08:34:24.997Z,3.65
2018-12-19T08:36:52.667Z,3.76
2018-12-19T08:39:20.465Z,3.76
2018-12-19T08:41:48.299Z,3.73
2018-12-19T08:44:15.875Z,3.65
2018-12-19T08:46:43.419Z,3.70
2018-12-19T08:49:10.935Z,3.72
2018-12-19T08:51:38.615Z,3.76
2018-12-19T08:54:06.132Z,3.80
2018-12-19T08:56:33.643Z,3.99
2018-12-19T08:59:01.320Z,3.86
2018-12-19T09:01:28.848Z,3.89
2018-12-19T09:03:56.368Z,3.84
2018-12-19T09:06:24.067Z,3.84
2018-12-19T09:08:51.667Z,3.83
2018-12-19T09:11:19.228Z,3.89
2018-12-19T09:13:46.890Z,4.15
2018-12-19T09:16:14.391Z,3.97
2018-12-19T09:18:41.895Z,3.88
2018-12-19T09:21:09.561Z,3.85
2018-12-19T09:23:37.086Z,3.86
2018-12-19T09:26:04.635Z,3.88
2018-12-19T09:28:32.347Z,3.97
2018-12-19T09:31:00.336Z,3.94
2018-12-19T09:33:27.882Z,3.96
2018-12-19T09:35:55.435Z,3.95
2018-12-19T09:38:22.998Z,4.11
2018-12-19T09:40:50.519Z,4.00
2018-12-19T09:43:18.215Z,4.08
2018-12-19T09:45:46.699Z,4.36
2018-12-19T09:48:14.223Z,4.17
2018-12-19T09:50:41.792Z,4.24
2018-12-19T09:53:09.307Z,4.20
2018-12-19T09:55:36.942Z,4.14
2018-12-19T09:58:04.607Z,4.21
2018-12-19T10:00:32.155Z,4.64
2018-12-19T10:02:59.692Z,4.44
2018-12-19T10:05:27.220Z,4.34
2018-12-19T10:07:54.763Z,4.09
2018-12-19T10:10:22.320Z,4.36
2018-12-19T10:12:50.006Z,4.16
2018-12-19T10:15:17.539Z,4.42
2018-12-19T10:17:45.063Z,4.53
2018-12-19T10:20:12.619Z,4.73
2018-12-19T10:22:40.159Z,4.46
2018-12-19T10:25:13.466Z,4.55
2018-12-19T10:27:41.131Z,4.58
2018-12-19T10:30:10.744Z,4.66
2018-12-19T10:32:39.405Z,4.40
2018-12-19T10:35:09.395Z,4.26
2018-12-19T10:37:37.183Z,4.24
2018-12-19T10:40:07.319Z,4.49
2018-12-19T10:42:34.879Z,4.84
2018-12-19T10:45:02.752Z,4.69
2018-12-19T10:47:30.268Z,4.69
2018-12-19T10:49:57.857Z,4.59
2018-12-19T10:52:25.371Z,4.53
2018-12-19T10:54:52.908Z,4.98
2018-12-19T10:57:20.452Z,4.92
2018-12-19T10:59:47.956Z,4.70
2018-12-19T11:02:15.692Z,4.73
2018-12-19T11:04:43.224Z,4.92
2018-12-19T11:07:10.747Z,4.82
2018-12-19T11:09:38.287Z,4.64
2018-12-19T11:12:05.823Z,4.82
2018-12-19T11:14:35.331Z,4.75
2018-12-19T11:17:02.972Z,4.64
2018-12-19T11:19:30.492Z,4.67
2018-12-19T11:21:58.051Z,4.62
2018-12-19T11:24:25.565Z,4.37
2018-12-19T11:26:53.416Z,4.53
2018-12-19T11:29:20.937Z,4.52
2018-12-19T11:31:48.460Z,4.42
2018-12-19T11:34:16.003Z,4.39
2018-12-19T11:36:43.522Z,4.54
2018-12-19T11:39:11.059Z,4.58
2018-12-19T11:41:39.089Z,4.62
2018-12-19T11:44:07.059Z,4.53
2018-12-19T11:46:34.604Z,4.58
2018-12-19T11:49:02.123Z,4.54
2018-12-19T11:51:29.667Z,4.54
2018-12-19T11:53:57.188Z,4.43
2018-12-19T11:56:24.752Z,4.45
2018-12-19T11:58:52.270Z,4.37
2018-12-19T12:01:19.824Z,4.44
2018-12-19T12:03:47.377Z,4.50
2018-12-19T12:06:14.895Z,4.52
2018-12-19T12:08:42.440Z,4.63
2018-12-19T12:11:09.992Z,4.61
2018-12-19T12:13:37.508Z,4.62
2018-12-19T12:16:05.057Z,4.55
2018-12-19T12:18:32.575Z,4.46
2018-12-19T12:21:00.247Z,4.49
2018-12-19T12:23:27.796Z,4.56
2018-12-19T12:25:55.315Z,4.65
2018-12-19T12:28:22.859Z,4.77
2018-12-19T12:30:50.377Z,4.68
2018-12-19T12:33:17.927Z,4.75
2018-12-19T12:35:45.551Z,4.85
2018-12-19T12:38:13.058Z,4.85
2018-12-19T12:40:40.611Z,4.74
2018-12-19T12:43:08.145Z,4.85
2018-12-19T12:45:35.855Z,4.86
2018-12-19T12:48:03.527Z,4.78
2018-12-19T12:50:31.055Z,4.88
2018-12-19T12:52:58.601Z,5.10
2018-12-19T12:55:26.124Z,5.13
2018-12-19T12:57:53.668Z,5.09
2018-12-19T13:00:21.203Z,5.12
2018-12-19T13:02:48.719Z,5.22
2018-12-19T13:05:16.379Z,5.23
2018-12-19T13:07:43.895Z,5.33
2018-12-19T13:10:11.747Z,5.20
2018-12-19T13:12:39.264Z,5.38
2018-12-19T13:15:07.319Z,5.69
2018-12-19T13:17:34.876Z,5.46
2018-12-19T13:20:02.587Z,5.28
2018-12-19T13:22:30.257Z,5.33
2018-12-19T13:24:57.771Z,5.34
2018-12-19T13:27:25.292Z,5.45
2018-12-19T13:29:52.831Z,5.30
2018-12-19T13:32:20.445Z,5.41
2018-12-19T13:34:48.260Z,5.41
2018-12-19T13:37:15.775Z,5.70
2018-12-19T13:39:43.288Z,5.74
2018-12-19T13:42:10.821Z,5.62
2018-12-19T13:44:38.331Z,5.58
2018-12-19T13:47:05.879Z,5.47
2018-12-19T13:49:33.404Z,5.63
2018-12-19T13:52:00.921Z,5.61
2018-12-19T13:54:28.468Z,5.34
2018-12-19T13:56:55.987Z,5.14
2018-12-19T13:59:23.856Z,5.19
2018-12-19T14:01:51.375Z,5.21
2018-12-19T14:04:19.215Z,5.22
2018-12-19T14:06:46.759Z,5.40
2018-12-19T14:09:14.297Z,5.47
2018-12-19T14:11:42.085Z,5.50
2018-12-19T14:14:09.620Z,5.64
2018-12-19T14:16:37.147Z,5.64
2018-12-19T14:19:04.702Z,5.76
2018-12-19T14:21:32.228Z,5.92
2018-12-19T14:23:59.796Z,5.71
2018-12-19T14:26:27.319Z,5.60
2018-12-19T14:28:54.838Z,5.35
2018-12-19T14:31:22.383Z,5.51
2018-12-19T14:33:50.043Z,5.28
2018-12-19T14:36:17.603Z,5.32
2018-12-19T14:38:45.115Z,5.34
2018-12-19T14:41:12.634Z,5.33
2018-12-19T14:43:40.177Z,5.30
2018-12-19T14:46:08.293Z,5.28
2018-12-19T14:48:35.847Z,5.37
2018-12-19T14:51:03.467Z,5.32
2018-12-19T14:53:30.975Z,5.23
2018-12-19T14:55:58.523Z,5.34
2018-12-19T14:58:26.031Z,5.26
2018-12-19T15:00:53.592Z,5.35
2018-12-19T15:03:21.110Z,5.38
2018-12-19T15:05:48.724Z,5.31
2018-12-19T15:08:16.375Z,5.33
2018-12-19T15:10:43.896Z,5.12
2018-12-19T15:13:11.448Z,5.08
2018-12-19T15:15:38.956Z,5.06
2018-12-19T15:18:06.472Z,5.02
2018-12-19T15:20:34.008Z,5.06
2018-12-19T15:23:01.751Z,5.06
2018-12-19T15:25:29.296Z,5.12
2018-12-19T15:27:56.811Z,5.04
2018-12-19T15:30:25.050Z,5.10
2018-12-19T15:32:52.871Z,5.02
2018-12-19T15:35:20.395Z,5.05
2018-12-19T15:37:47.967Z,5.05
2018-12-19T15:40:15.530Z,5.16
2018-12-19T15:42:43.240Z,5.27
2018-12-19T15:45:10.855Z,5.29
2018-12-19T15:47:38.372Z,5.32
2018-12-19T15:50:06.620Z,5.35
2018-12-19T15:52:34.153Z,5.31
2018-12-19T15:55:01.701Z,5.33
2018-12-19T15:57:29.240Z,5.34
2018-12-19T15:59:56.752Z,5.36
2018-12-19T16:02:24.293Z,5.57
2018-12-19T16:04:51.824Z,5.78
2018-12-19T16:07:19.376Z,5.54
2018-12-19T16:09:46.906Z,5.38
2018-12-19T16:12:14.419Z,5.28
2018-12-19T16:14:41.966Z,5.21
2018-12-19T16:17:09.472Z,5.18
2018-12-19T16:19:37.316Z,5.15
2018-12-19T16:22:04.956Z,5.45
2018-12-19T16:24:32.471Z,5.64
2018-12-19T16:27:00.007Z,5.31
2018-12-19T16:29:27.523Z,5.34
2018-12-19T16:31:55.103Z,5.33
2018-12-19T16:34:23.024Z,5.42
2018-12-19T16:36:50.549Z,5.58
2018-12-19T16:39:18.083Z,5.30
2018-12-19T16:41:45.592Z,5.16
2018-12-19T16:44:13.139Z,4.97
2018-12-19T16:46:40.654Z,4.94
2018-12-19T16:49:08.179Z,4.93
2018-12-19T16:51:35.727Z,4.91
2018-12-19T16:54:03.369Z,4.88
2018-12-19T16:56:31.122Z,4.73
2018-12-19T16:58:58.643Z,4.59
2018-12-19T17:01:26.163Z,4.55
2018-12-19T17:03:53.785Z,4.40
2018-12-19T17:06:21.299Z,4.39
2018-12-19T17:08:48.925Z,4.28
2018-12-19T17:11:16.439Z,4.33
2018-12-19T17:13:43.955Z,4.39
2018-12-19T17:16:11.504Z,4.28
2018-12-19T17:18:39.030Z,4.33
2018-12-19T17:21:06.579Z,4.32
2018-12-19T17:23:34.097Z,4.33
2018-12-19T17:26:01.816Z,4.26
2018-12-19T17:28:29.369Z,4.38
2018-12-19T17:30:56.896Z,4.26
2018-12-19T17:33:24.499Z,4.29
2018-12-19T17:35:52.015Z,4.25
2018-12-19T17:38:19.643Z,4.07
2018-12-19T17:40:47.208Z,4.06
2018-12-19T17:43:14.727Z,3.99
2018-12-19T17:45:42.283Z,3.69
2018-12-19T17:48:09.801Z,3.77
2018-12-19T17:50:37.964Z,3.75
2018-12-19T17:53:05.507Z,3.81
2018-12-19T17:55:33.023Z,3.86
2018-12-19T17:58:00.728Z,3.88
2018-12-19T18:00:28.341Z,3.88
2018-12-19T18:02:55.855Z,3.75
2018-12-19T18:05:23.407Z,3.84
2018-12-19T18:07:50.991Z,3.94
2018-12-19T18:10:18.612Z,3.92
2018-12-19T18:12:46.131Z,4.00
2018-12-19T18:15:13.647Z,3.97
2018-12-19T18:17:41.211Z,4.03
2018-12-19T18:20:08.851Z,3.94
2018-12-19T18:22:36.735Z,3.88
2018-12-19T18:25:04.655Z,3.94
2018-12-19T18:27:32.168Z,3.93
2018-12-19T18:29:59.722Z,3.84
2018-12-19T18:32:27.235Z,3.80
2018-12-19T18:34:54.779Z,3.86
2018-12-19T18:37:22.552Z,3.72
2018-12-19T18:39:50.067Z,3.77
2018-12-19T18:42:17.622Z,3.77
2018-12-19T18:44:45.135Z,3.84
2018-12-19T18:47:12.683Z,3.70
2018-12-19T18:49:40.223Z,3.68
2018-12-19T18:52:07.969Z,3.73
2018-12-19T18:54:35.555Z,3.84
2018-12-19T18:57:03.076Z,3.72
2018-12-19T18:59:30.625Z,3.72
2018-12-19T19:01:58.222Z,3.62
2018-12-19T19:04:25.849Z,3.69
2018-12-19T19:06:53.405Z,3.69
2018-12-19T19:09:20.997Z,3.64
2018-12-19T19:11:48.615Z,3.60
2018-12-19T19:14:16.133Z,3.67
2018-12-19T19:16:43.671Z,3.65
2018-12-19T19:19:11.313Z,3.70
2018-12-19T19:21:40.319Z,3.84
2018-12-19T19:24:08.203Z,3.77
2018-12-19T19:26:36.540Z,3.89
2018-12-19T19:29:04.364Z,3.87
2018-12-19T19:31:32.098Z,3.90
2018-12-19T19:33:59.659Z,3.88
2018-12-19T19:36:27.182Z,3.93
2018-12-19T19:38:54.728Z,3.82
2018-12-19T19:41:22.257Z,3.90
2018-12-19T19:43:50.101Z,3.94
2018-12-19T19:46:17.647Z,3.91
2018-12-19T19:48:45.184Z,3.97
2018-12-19T19:51:16.987Z,4.00
2018-12-19T19:53:42.285Z,4.12
2018-12-19T19:56:09.950Z,4.01
2018-12-19T19:58:37.997Z,3.99
2018-12-19T20:01:05.525Z,3.96
2018-12-19T20:03:33.088Z,4.06
2018-12-19T20:06:00.607Z,4.05
2018-12-19T20:08:28.170Z,4.02
2018-12-19T20:10:55.947Z,4.02
2018-12-19T20:13:23.468Z,4.07
2018-12-19T20:15:51.015Z,4.02
2018-12-19T20:18:18.541Z,4.01
2018-12-19T20:20:46.272Z,3.90
2018-12-19T20:23:13.792Z,4.02
2018-12-19T20:25:41.311Z,4.02
2018-12-19T20:28:08.887Z,4.34
2018-12-19T20:30:36.462Z,4.21
2018-12-19T20:33:04.266Z,4.15
2018-12-19T20:35:31.895Z,4.13
2018-12-19T20:37:59.419Z,4.06
2018-12-19T20:40:26.980Z,4.06
2018-12-19T20:42:54.528Z,4.04
2018-12-19T20:45:22.366Z,4.03
2018-12-19T20:47:49.903Z,4.03
2018-12-19T20:50:17.423Z,4.06
2018-12-19T20:52:44.979Z,4.16
2018-12-19T20:55:12.513Z,4.10
2018-12-19T20:57:40.182Z,4.00
2018-12-19T21:00:07.950Z,3.96
2018-12-19T21:02:35.468Z,3.92
2018-12-19T21:05:03.039Z,3.96
2018-12-19T21:07:30.592Z,3.89
2018-12-19T21:09:58.148Z,3.94
2018-12-19T21:12:25.683Z,3.90
2018-12-19T21:14:53.300Z,3.97
2018-12-19T21:17:26.460Z,3.92
2018-12-19T21:19:53.972Z,4.16
2018-12-19T21:22:21.524Z,4.05
2018-12-19T21:24:49.039Z,4.09
2018-12-19T21:27:16.544Z,4.13
2018-12-19T21:29:44.092Z,4.19
2018-12-19T21:32:11.612Z,4.06
2018-12-19T21:34:39.327Z,4.06
2018-12-19T21:37:06.862Z,4.03
2018-12-19T21:39:34.405Z,4.04
2018-12-19T21:42:02.044Z,4.00
2018-12-19T21:44:29.688Z,3.98
2018-12-19T21:46:57.489Z,4.02
2018-12-19T21:49:25.131Z,4.05
2018-12-19T21:51:52.764Z,4.06
2018-12-19T21:54:20.401Z,4.06
2018-12-19T21:56:48.013Z,4.05
2018-12-19T21:59:15.675Z,4.04
2018-12-19T22:01:43.204Z,4.05
2018-12-19T22:04:10.727Z,3.95
2018-12-19T22:06:38.399Z,3.92
2018-12-19T22:09:07.911Z,3.82
2018-12-19T22:11:35.707Z,3.72
2018-12-19T22:14:03.261Z,3.57
2018-12-19T22:16:36.615Z,3.62
2018-12-19T22:19:04.299Z,3.68
2018-12-19T22:21:31.925Z,3.76
2018-12-19T22:23:59.564Z,3.87
2018-12-19T22:26:27.158Z,3.73
2018-12-19T22:28:54.681Z,3.79
2018-12-19T22:31:22.253Z,3.91
2018-12-19T22:33:49.807Z,4.04
2018-12-19T22:36:17.762Z,3.98
2018-12-19T22:38:45.288Z,4.05
2018-12-19T22:41:12.877Z,4.03
2018-12-19T22:43:40.482Z,4.10
2018-12-19T22:46:08.151Z,4.25
2018-12-19T22:48:35.939Z,4.17
2018-12-19T22:51:03.524Z,4.14
2018-12-19T22:53:31.217Z,4.06
2018-12-19T22:55:58.843Z,4.06
2018-12-19T22:58:26.376Z,4.08
2018-12-19T23:04:06.642Z,4.10
2018-12-19T23:06:34.823Z,4.16
2018-12-19T23:09:02.362Z,4.21
2018-12-19T23:11:29.968Z,4.16
2018-12-19T23:13:57.610Z,4.18
2018-12-19T23:16:25.171Z,4.19
2018-12-19T23:18:52.839Z,4.15
2018-12-19T23:21:20.370Z,4.19
2018-12-19T23:23:47.911Z,4.21
2018-12-19T23:26:15.668Z,4.19
2018-12-19T23:28:43.243Z,4.10
2018-12-19T23:31:10.932Z,4.07
2018-12-19T23:33:38.535Z,4.05
2018-12-19T23:36:06.128Z,3.97
2018-12-19T23:38:33.736Z,3.93
2018-12-19T23:41:01.375Z,3.82
2018-12-19T23:43:29.434Z,3.72
2018-12-19T23:45:56.999Z,3.66
2018-12-19T23:48:24.522Z,3.75
2018-12-19T23:50:52.225Z,3.68
2018-12-19T23:53:19.835Z,3.67
2018-12-19T23:55:47.551Z,3.49
2018-12-19T23:58:15.099Z,3.37
